Time;durP1;ratioP1;P1;durP2;ratioP2;P2;SDS_P1;SDS_P2;PMS_P1;PMS_P2;Temp;Humidity;BMP_temperature;BMP_pressure;BME280_temperature;BME280_humidity;BME280_pressure;Samples;Min_cycle;Max_cycle;Signal;HPM_P1;HPM_P2
2021/06/30 00:01:26;;;;;;;;;;;;;;;19.10;62.84;100935.75;5056338;28;1820;-61
2021/06/30 00:03:51;;;;;;;;;;;;;;;19.11;62.93;100937.47;5055765;28;2017;-60
2021/06/30 00:06:18;;;;;;;;;;;;;;;19.02;63.55;100937.34;5055905;28;1544;-58
2021/06/30 00:08:43;;;;;;;;;;;;;;;19.02;62.99;100931.94;5053878;28;1965;-59
2021/06/30 00:11:08;;;;;;;;;;;;;;;19.06;62.92;100930.66;5055903;28;1721;-59
2021/06/30 00:13:33;;;;;;;;;;;;;;;19.02;63.50;100923.84;5056421;28;957;-59
2021/06/30 00:15:58;;;;;;;;;;;;;;;18.94;63.70;100929.19;5055034;28;1118;-61
2021/06/30 00:18:23;;;;;;;;;;;;;;;18.80;63.35;100927.00;5056781;28;839;-60
2021/06/30 00:20:48;;;;;;;;;;;;;;;18.97;63.74;100923.47;5055944;28;1777;-60
2021/06/30 00:23:14;;;;;;;;;;;;;;;18.50;64.07;100922.69;5056306;28;1017;-60
2021/06/30 00:25:39;;;;;;;;;;;;;;;18.66;64.03;100925.63;5056271;28;840;-61
2021/06/30 00:28:04;;;;;;;;;;;;;;;18.68;63.89;100922.78;5056369;28;1977;-60
2021/06/30 00:30:29;;;;;;;;;;;;;;;18.77;63.12;100929.13;5056060;28;1788;-60
2021/06/30 00:32:54;;;;;;;;;;;;;;;18.83;63.68;100923.97;5055954;28;914;-60
2021/06/30 00:35:19;;;;;;;;;;;;;;;18.89;63.12;100936.88;5055712;28;1249;-60
2021/06/30 00:37:44;;;;;;;;;;;;;;;18.82;63.05;100922.25;5055845;28;1664;-60
2021/06/30 00:40:09;;;;;;;;;;;;;;;18.88;63.37;100934.31;5055709;28;1945;-60
2021/06/30 00:42:34;;;;;;;;;;;;;;;18.89;63.54;100923.38;5055977;28;850;-60
2021/06/30 00:44:59;;;;;;;;;;;;;;;18.90;63.17;100922.38;5066680;23;3673;-71
2021/06/30 00:47:25;;;;;;;;;;;;;;;18.80;63.14;100918.91;5064823;22;11842;-60
2021/06/30 00:49:50;;;;;;;;;;;;;;;18.90;63.19;100918.81;5040447;28;1705;-60
2021/06/30 00:52:15;;;;;;;;;;;;;;;18.73;63.84;100912.38;5047110;28;1084;-60
2021/06/30 00:54:40;;;;;;;;;;;;;;;18.66;63.34;100903.19;5044313;28;1092;-59
2021/06/30 00:57:05;;;;;;;;;;;;;;;18.87;62.97;100903.78;5048078;28;1605;-60
2021/06/30 00:59:30;;;;;;;;;;;;;;;19.02;62.22;100907.66;5035844;28;1036;-60
2021/06/30 01:01:55;;;;;;;;;;;;;;;18.78;63.60;100904.69;5036140;28;1016;-59
2021/06/30 01:04:20;;;;;;;;;;;;;;;18.66;63.06;100900.47;5050466;28;1164;-60
2021/06/30 01:06:45;;;;;;;;;;;;;;;18.76;63.31;100892.34;5035871;28;1865;-59
2021/06/30 01:09:11;;;;;;;;;;;;;;;18.90;62.46;100897.22;5035620;28;1914;-59
2021/06/30 01:11:36;;;;;;;;;;;;;;;18.91;62.62;100894.38;5035515;28;841;-60
2021/06/30 01:14:01;;;;;;;;;;;;;;;18.80;63.48;100896.44;5035409;28;1009;-60
2021/06/30 01:16:26;;;;;;;;;;;;;;;18.79;63.50;100892.91;5036080;28;1775;-60
2021/06/30 01:18:51;;;;;;;;;;;;;;;18.81;63.13;100893.56;5055899;28;948;-60
2021/06/30 01:21:16;;;;;;;;;;;;;;;18.80;63.28;100893.75;5055136;28;1078;-60
2021/06/30 01:23:41;;;;;;;;;;;;;;;18.86;63.09;100891.28;5055200;28;798;-60
2021/06/30 01:26:06;;;;;;;;;;;;;;;18.94;62.51;100891.38;5054847;28;917;-60
2021/06/30 01:28:31;;;;;;;;;;;;;;;18.98;62.94;100890.06;5038427;28;1947;-60
2021/06/30 01:30:57;;;;;;;;;;;;;;;19.12;61.93;100890.53;5035204;28;846;-60
2021/06/30 01:33:22;;;;;;;;;;;;;;;19.17;62.65;100894.44;5035270;28;843;-59
2021/06/30 01:35:47;;;;;;;;;;;;;;;19.03;62.74;100885.03;5034937;28;985;-59
2021/06/30 01:38:12;;;;;;;;;;;;;;;19.03;62.74;100890.44;5035038;28;1863;-61
2021/06/30 01:40:39;;;;;;;;;;;;;;;18.78;63.60;100883.09;5034713;28;921;-61
2021/06/30 01:43:05;;;;;;;;;;;;;;;18.76;63.42;100879.69;5035355;28;775;-61
2021/06/30 01:45:30;;;;;;;;;;;;;;;18.92;62.91;100879.88;5034991;28;889;-61
2021/06/30 01:47:55;;;;;;;;;;;;;;;19.03;62.87;100876.94;5039672;28;1969;-61
2021/06/30 01:50:20;;;;;;;;;;;;;;;18.88;63.45;100873.06;5034808;28;934;-61
2021/06/30 01:52:45;;;;;;;;;;;;;;;18.83;63.80;100877.22;5034925;28;1609;-61
2021/06/30 01:55:10;;;;;;;;;;;;;;;18.93;62.97;100878.88;5050401;28;1103;-60
2021/06/30 01:57:35;;;;;;;;;;;;;;;19.12;62.90;100879.72;5048579;28;1804;-61
2021/06/30 02:00:00;;;;;;;;;;;;;;;19.19;62.67;100886.19;5054532;28;997;-60
2021/06/30 02:02:28;;;;;;;;;;;;;;;19.02;63.31;100885.19;5055019;28;853;-59
2021/06/30 02:04:53;;;;;;;;;;;;;;;18.98;62.79;100881.97;5055109;28;836;-59
2021/06/30 02:07:18;;;;;;;;;;;;;;;18.95;63.16;100879.56;5053884;28;1906;-60
2021/06/30 02:09:43;;;;;;;;;;;;;;;19.06;63.22;100882.03;5054474;28;814;-60
2021/06/30 02:12:08;;;;;;;;;;;;;;;18.91;63.40;100883.56;5053080;22;1471;-61
2021/06/30 02:14:33;;;;;;;;;;;;;;;19.06;63.12;100882.03;5033918;28;1480;-60
2021/06/30 02:16:58;;;;;;;;;;;;;;;19.02;63.48;100886.03;5034283;28;993;-60
2021/06/30 02:19:23;;;;;;;;;;;;;;;19.09;62.83;100878.19;5034602;28;941;-60
2021/06/30 02:21:48;;;;;;;;;;;;;;;18.89;63.33;100877.47;5040972;28;1568;-60
2021/06/30 02:24:13;;;;;;;;;;;;;;;18.89;63.50;100880.16;5054417;28;869;-60
2021/06/30 02:26:38;;;;;;;;;;;;;;;18.94;63.41;100879.72;5054068;28;1008;-60
2021/06/30 02:29:04;;;;;;;;;;;;;;;18.88;63.29;100875.75;5054151;28;1910;-60
2021/06/30 02:31:29;;;;;;;;;;;;;;;18.77;63.84;100875.16;5049977;28;1880;-60
2021/06/30 02:33:54;;;;;;;;;;;;;;;18.81;63.43;100879.25;5034136;28;1745;-60
2021/06/30 02:36:19;;;;;;;;;;;;;;;18.72;63.40;100862.94;5034249;28;1663;-60
2021/06/30 02:38:44;;;;;;;;;;;;;;;18.80;63.32;100866.75;5034220;28;906;-60
2021/06/30 02:41:09;;;;;;;;;;;;;;;18.51;64.36;100853.38;5034137;28;842;-61
2021/06/30 02:43:34;;;;;;;;;;;;;;;18.48;63.90;100853.66;5036600;28;1628;-61
2021/06/30 02:45:59;;;;;;;;;;;;;;;18.53;63.92;100862.16;5054248;28;909;-60
2021/06/30 02:48:25;;;;;;;;;;;;;;;18.63;63.93;100852.22;5057106;28;1886;-62
2021/06/30 02:50:50;;;;;;;;;;;;;;;18.59;63.66;100846.28;5056565;28;1584;-60
2021/06/30 02:53:16;;;;;;;;;;;;;;;18.68;63.43;100839.94;5056875;28;1669;-59
2021/06/30 02:55:41;;;;;;;;;;;;;;;18.56;63.61;100842.97;5057450;28;1648;-60
2021/06/30 02:58:06;;;;;;;;;;;;;;;18.38;63.86;100838.38;5057370;28;1008;-60
2021/06/30 03:00:31;;;;;;;;;;;;;;;18.36;63.31;100835.00;5053587;28;1692;-59
2021/06/30 03:02:56;;;;;;;;;;;;;;;18.42;63.71;100838.09;5037728;28;807;-60
2021/06/30 03:05:21;;;;;;;;;;;;;;;18.51;62.99;100839.88;5038102;28;1239;-60
2021/06/30 03:07:50;;;;;;;;;;;;;;;18.55;63.19;100843.97;5037784;28;1890;-60
2021/06/30 03:10:15;;;;;;;;;;;;;;;18.26;63.32;100834.22;5038836;28;1789;-60
2021/06/30 03:12:40;;;;;;;;;;;;;;;18.20;64.04;100833.94;5057334;28;1925;-60
2021/06/30 03:15:05;;;;;;;;;;;;;;;18.31;63.48;100841.81;5057209;28;1063;-60
2021/06/30 03:17:33;;;;;;;;;;;;;;;18.30;63.34;100840.97;5057850;28;1552;-59
2021/06/30 03:19:58;;;;;;;;;;;;;;;18.27;63.85;100843.16;5057443;28;847;-59
2021/06/30 03:22:23;;;;;;;;;;;;;;;18.41;63.46;100852.59;5052269;28;1851;-59
2021/06/30 03:24:48;;;;;;;;;;;;;;;18.51;63.54;100847.97;5037873;28;878;-59
2021/06/30 03:27:14;;;;;;;;;;;;;;;18.45;63.13;100852.13;5037156;28;1963;-59
2021/06/30 03:29:39;;;;;;;;;;;;;;;18.32;63.54;100847.06;5037057;28;929;-59
2021/06/30 03:32:04;;;;;;;;;;;;;;;18.39;63.40;100850.88;5037897;28;1862;-59
2021/06/30 03:34:29;;;;;;;;;;;;;;;18.50;62.62;100846.28;5037092;28;914;-59
2021/06/30 03:36:54;;;;;;;;;;;;;;;18.38;63.19;100848.34;5037490;28;1601;-59
2021/06/30 03:39:19;;;;;;;;;;;;;;;18.20;63.37;100850.13;5037409;28;984;-59
2021/06/30 03:41:44;;;;;;;;;;;;;;;18.21;63.54;100852.69;5038120;28;1826;-59
2021/06/30 03:44:09;;;;;;;;;;;;;;;18.29;63.49;100850.06;5037495;28;1025;-59
2021/06/30 03:46:34;;;;;;;;;;;;;;;18.21;63.44;100868.00;5037375;28;865;-59
2021/06/30 03:48:59;;;;;;;;;;;;;;;18.25;63.63;100864.03;5035642;28;1893;-59
2021/06/30 03:51:24;;;;;;;;;;;;;;;18.34;63.03;100868.50;5051345;28;1684;-60
2021/06/30 03:53:49;;;;;;;;;;;;;;;18.55;62.78;100873.66;5056980;28;945;-60
2021/06/30 03:56:15;;;;;;;;;;;;;;;18.53;63.04;100872.97;5056842;28;1435;-59
2021/06/30 03:58:40;;;;;;;;;;;;;;;18.56;63.04;100878.06;5056637;28;989;-60
2021/06/30 04:01:05;;;;;;;;;;;;;;;18.58;62.82;100876.06;5044810;28;1765;-60
2021/06/30 04:03:30;;;;;;;;;;;;;;;18.63;62.39;100876.50;5036703;28;1782;-59
2021/06/30 04:05:55;;;;;;;;;;;;;;;18.68;62.96;100887.69;5036868;28;1541;-59
2021/06/30 04:08:20;;;;;;;;;;;;;;;18.77;62.26;100894.88;5036724;28;1894;-60
2021/06/30 04:10:45;;;;;;;;;;;;;;;18.68;62.19;100888.53;5047697;28;1803;-59
2021/06/30 04:13:11;;;;;;;;;;;;;;;18.39;63.25;100888.66;5056790;28;863;-59
2021/06/30 04:15:36;;;;;;;;;;;;;;;18.43;63.36;100888.38;5056633;28;908;-60
2021/06/30 04:18:01;;;;;;;;;;;;;;;18.34;63.50;100877.47;5056587;28;806;-59
2021/06/30 04:20:26;;;;;;;;;;;;;;;18.33;63.60;100874.91;5047274;28;1832;-60
2021/06/30 04:22:52;;;;;;;;;;;;;;;18.23;64.31;100864.16;5036768;28;941;-59
2021/06/30 04:25:17;;;;;;;;;;;;;;;18.38;63.43;100865.38;5036600;28;1645;-60
2021/06/30 04:27:42;;;;;;;;;;;;;;;18.32;63.94;100870.50;5036370;28;1914;-59
2021/06/30 04:30:08;;;;;;;;;;;;;;;18.18;64.13;100865.59;5044218;28;1881;-59
2021/06/30 04:32:33;;;;;;;;;;;;;;;18.24;63.90;100863.19;5056408;28;923;-60
2021/06/30 04:34:58;;;;;;;;;;;;;;;18.49;63.63;100871.56;5056151;28;1618;-59
2021/06/30 04:37:23;;;;;;;;;;;;;;;18.56;63.04;100867.28;5055818;28;1008;-59
2021/06/30 04:39:48;;;;;;;;;;;;;;;18.49;63.32;100871.56;5050022;28;1854;-60
2021/06/30 04:42:13;;;;;;;;;;;;;;;18.39;64.30;100869.78;5035950;28;1031;-60
2021/06/30 04:44:38;;;;;;;;;;;;;;;18.41;63.91;100871.47;5035495;28;839;-59
2021/06/30 04:47:03;;;;;;;;;;;;;;;18.34;64.05;100872.06;5036236;28;1957;-60
2021/06/30 04:49:29;;;;;;;;;;;;;;;18.44;64.02;100879.28;5035676;28;869;-59
2021/06/30 04:51:54;;;;;;;;;;;;;;;18.35;63.93;100872.91;5043686;28;1692;-61
2021/06/30 04:54:21;;;;;;;;;;;;;;;18.14;64.62;100877.69;5055927;28;1668;-59
2021/06/30 04:56:47;;;;;;;;;;;;;;;18.30;64.08;100869.81;5055711;28;829;-59
2021/06/30 04:59:12;;;;;;;;;;;;;;;18.38;63.99;100878.88;5054798;28;1637;-60
2021/06/30 05:01:37;;;;;;;;;;;;;;;18.36;63.96;100872.75;5036756;28;2269;-59
2021/06/30 05:04:02;;;;;;;;;;;;;;;18.54;63.71;100861.16;5034738;28;1744;-60
2021/06/30 05:06:27;;;;;;;;;;;;;;;18.39;64.30;100867.06;5035292;28;1430;-60
2021/06/30 05:08:52;;;;;;;;;;;;;;;18.35;64.21;100864.81;5034789;28;1905;-58
2021/06/30 05:11:17;;;;;;;;;;;;;;;18.31;64.40;100868.81;5049900;28;1611;-59
2021/06/30 05:13:42;;;;;;;;;;;;;;;18.01;65.45;100868.06;5054767;28;888;-59
2021/06/30 05:16:08;;;;;;;;;;;;;;;18.16;65.21;100865.75;5047209;28;2018;-59
2021/06/30 05:18:33;;;;;;;;;;;;;;;18.06;66.34;100870.34;5035039;28;2056;-59
2021/06/30 05:20:58;;;;;;;;;;;;;;;18.26;67.33;100861.19;5034516;28;1616;-58
2021/06/30 05:23:23;;;;;;;;;;;;;;;18.28;67.00;100859.16;5035401;28;1592;-58
2021/06/30 05:25:48;;;;;;;;;;;;;;;18.41;66.95;100848.03;5034761;28;1716;-59
2021/06/30 05:28:13;;;;;;;;;;;;;;;18.33;66.51;100858.72;5034655;28;1914;-59
2021/06/30 05:30:39;;;;;;;;;;;;;;;18.28;66.69;100858.31;5034246;28;1503;-59
2021/06/30 05:33:04;;;;;;;;;;;;;;;18.34;66.05;100853.19;5034420;28;1527;-59
2021/06/30 05:35:29;;;;;;;;;;;;;;;18.44;65.64;100855.00;5034104;28;1757;-59
2021/06/30 05:37:54;;;;;;;;;;;;;;;18.57;65.68;100853.63;5033265;28;1676;-60
2021/06/30 05:40:20;;;;;;;;;;;;;;;18.76;64.32;100855.41;5034769;28;1722;-59
2021/06/30 05:42:45;;;;;;;;;;;;;;;18.64;64.92;100848.50;5034676;28;1615;-60
2021/06/30 05:45:15;;;;;;;;;;;;;;;18.50;65.47;100857.06;5034854;28;1491;-59
2021/06/30 05:47:40;;;;;;;;;;;;;;;18.31;65.49;100858.88;5035374;28;1981;-60
2021/06/30 05:50:05;;;;;;;;;;;;;;;18.23;65.78;100860.63;5034448;28;1732;-59
2021/06/30 05:52:30;;;;;;;;;;;;;;;18.39;65.62;100855.44;5034855;28;856;-59
2021/06/30 05:54:55;;;;;;;;;;;;;;;18.28;65.10;100856.47;5035113;28;1087;-59
2021/06/30 05:57:20;;;;;;;;;;;;;;;18.34;65.59;100860.41;5034949;28;1684;-59
2021/06/30 05:59:45;;;;;;;;;;;;;;;18.45;65.26;100867.47;5052193;28;1701;-59
2021/06/30 06:02:10;;;;;;;;;;;;;;;18.36;65.70;100878.16;5055079;28;815;-59
2021/06/30 06:04:35;;;;;;;;;;;;;;;18.45;65.66;100876.41;5054638;28;850;-59
2021/06/30 06:07:00;;;;;;;;;;;;;;;18.57;64.72;100879.78;5041403;28;1680;-60
2021/06/30 06:09:26;;;;;;;;;;;;;;;18.38;64.90;100881.56;5037273;28;1887;-59
2021/06/30 06:11:51;;;;;;;;;;;;;;;18.53;65.02;100876.50;5034647;28;1750;-60
2021/06/30 06:14:16;;;;;;;;;;;;;;;18.58;64.98;100885.03;5035016;28;1037;-60
2021/06/30 06:16:41;;;;;;;;;;;;;;;18.52;65.20;100879.34;5039321;28;1918;-59
2021/06/30 06:19:07;;;;;;;;;;;;;;;18.54;64.73;100880.06;5054825;28;926;-60
2021/06/30 06:21:32;;;;;;;;;;;;;;;18.30;65.53;100884.13;5032542;28;1823;-61
2021/06/30 06:23:57;;;;;;;;;;;;;;;18.44;64.94;100882.81;5037879;28;1640;-60
2021/06/30 06:26:22;;;;;;;;;;;;;;;18.41;65.19;100885.81;5038587;28;1658;-60
2021/06/30 06:28:48;;;;;;;;;;;;;;;18.47;65.07;100881.66;5040340;28;1960;-58
2021/06/30 06:31:16;;;;;;;;;;;;;;;18.38;65.06;100876.16;5037719;28;1531;-58
2021/06/30 06:33:41;;;;;;;;;;;;;;;18.37;65.47;100881.72;5038257;28;1725;-59
2021/06/30 06:36:06;;;;;;;;;;;;;;;18.54;64.56;100886.31;5023742;28;1560;-58
2021/06/30 06:38:31;;;;;;;;;;;;;;;18.33;65.00;100877.59;5028998;28;1962;-59
2021/06/30 06:40:56;;;;;;;;;;;;;;;18.48;64.71;100886.91;5030724;22;2108;-59
2021/06/30 06:43:21;;;;;;;;;;;;;;;18.53;64.70;100883.75;5032364;28;1056;-59
2021/06/30 06:45:46;;;;;;;;;;;;;;;18.63;65.06;100876.50;5013478;28;1571;-58
2021/06/30 06:48:11;;;;;;;;;;;;;;;18.86;64.26;100885.88;5015048;28;1978;-58
2021/06/30 06:50:36;;;;;;;;;;;;;;;19.05;63.48;100882.19;5013830;28;1357;-59
2021/06/30 06:53:01;;;;;;;;;;;;;;;19.19;63.90;100881.66;5012268;28;1220;-58
2021/06/30 06:55:27;;;;;;;;;;;;;;;19.24;63.17;100883.88;5008088;28;1353;-59
2021/06/30 06:57:52;;;;;;;;;;;;;;;19.29;63.34;100887.00;5019052;28;1686;-59
2021/06/30 07:00:17;;;;;;;;;;;;;;;19.29;63.07;100887.00;5019026;28;1304;-59
2021/06/30 07:02:42;;;;;;;;;;;;;;;19.25;62.98;100891.00;5015191;28;1541;-59
2021/06/30 07:05:07;;;;;;;;;;;;;;;19.30;63.05;100891.38;5017970;28;1745;-58
2021/06/30 07:07:32;;;;;;;;;;;;;;;19.27;63.04;100895.25;5018043;28;1890;-58
2021/06/30 07:09:57;;;;;;;;;;;;;;;19.31;62.88;100896.63;5017929;28;911;-58
2021/06/30 07:12:22;;;;;;;;;;;;;;;19.28;62.59;100905.06;5017912;28;1891;-59
2021/06/30 07:14:47;;;;;;;;;;;;;;;19.34;62.68;100900.88;5027477;28;1858;-59
2021/06/30 07:17:12;;;;;;;;;;;;;;;19.32;62.91;100897.50;5021122;28;1826;-59
2021/06/30 07:19:38;;;;;;;;;;;;;;;19.32;62.45;100898.34;5017435;28;1663;-59
2021/06/30 07:22:03;;;;;;;;;;;;;;;19.32;62.36;100900.19;5017145;28;1977;-59
2021/06/30 07:24:28;;;;;;;;;;;;;;;19.31;62.09;100899.34;5017451;28;922;-59
2021/06/30 07:26:53;;;;;;;;;;;;;;;19.30;61.83;100899.50;5017989;28;874;-59
2021/06/30 07:29:18;;;;;;;;;;;;;;;19.31;62.24;100906.59;5017862;28;1918;-59
2021/06/30 07:31:44;;;;;;;;;;;;;;;19.31;62.49;100901.19;5006533;28;1916;-60
2021/06/30 07:34:09;;;;;;;;;;;;;;;19.34;62.35;100898.19;5006990;28;1725;-59
2021/06/30 07:36:34;;;;;;;;;;;;;;;19.31;62.79;100903.91;5017063;28;1572;-59
2021/06/30 07:38:59;;;;;;;;;;;;;;;19.32;62.25;100897.50;5016554;28;1622;-59
2021/06/30 07:41:24;;;;;;;;;;;;;;;19.33;62.08;100899.19;5010009;28;1634;-59
2021/06/30 07:43:49;;;;;;;;;;;;;;;19.34;62.36;100895.50;4997578;28;880;-59
2021/06/30 07:46:14;;;;;;;;;;;;;;;19.31;62.28;100893.94;4997935;28;1637;-60
2021/06/30 07:48:39;;;;;;;;;;;;;;;19.31;62.09;100890.38;5011755;28;1910;-59
2021/06/30 07:51:04;;;;;;;;;;;;;;;19.33;62.25;100896.50;5025092;28;1892;-60
2021/06/30 07:53:30;;;;;;;;;;;;;;;19.32;61.41;100903.75;5016903;28;1869;-60
2021/06/30 07:55:55;;;;;;;;;;;;;;;19.32;62.42;100905.59;5016277;28;1523;-60
2021/06/30 07:58:21;;;;;;;;;;;;;;;19.38;62.22;100913.91;5014610;28;1627;-60
2021/06/30 08:00:46;;;;;;;;;;;;;;;19.42;62.28;100914.47;5014557;28;1486;-59
2021/06/30 08:03:11;;;;;;;;;;;;;;;19.41;62.38;100918.16;5016283;28;1718;-60
2021/06/30 08:05:36;;;;;;;;;;;;;;;19.37;62.12;100923.03;5011561;28;1652;-60
2021/06/30 08:08:01;;;;;;;;;;;;;;;19.37;62.61;100919.47;5017152;28;1955;-60
2021/06/30 08:10:26;;;;;;;;;;;;;;;19.34;62.38;100912.56;5016119;28;1814;-60
2021/06/30 08:12:51;;;;;;;;;;;;;;;19.34;62.50;100923.38;5017148;28;942;-60
2021/06/30 08:15:16;;;;;;;;;;;;;;;19.33;62.36;100927.06;5017133;28;918;-60
2021/06/30 08:17:41;;;;;;;;;;;;;;;19.34;62.14;100927.91;5017024;28;1053;-60
2021/06/30 08:20:06;;;;;;;;;;;;;;;19.33;62.43;100927.06;5013298;28;1737;-60
2021/06/30 08:22:33;;;;;;;;;;;;;;;19.34;61.92;100931.47;4997177;28;2060;-60
2021/06/30 08:24:58;;;;;;;;;;;;;;;19.34;62.17;100922.50;4997376;28;853;-60
2021/06/30 08:27:23;;;;;;;;;;;;;;;19.35;61.65;100929.59;4997134;28;1898;-60
2021/06/30 08:29:48;;;;;;;;;;;;;;;19.33;61.78;100935.19;4999745;28;1927;-60
2021/06/30 08:32:14;;;;;;;;;;;;;;;19.33;61.86;100926.22;5016212;28;803;-59
2021/06/30 08:34:39;;;;;;;;;;;;;;;19.34;62.38;100939.56;5016726;28;838;-60
2021/06/30 08:37:08;;;;;;;;;;;;;;;19.34;61.72;100939.56;5016664;28;890;-60
2021/06/30 08:39:33;;;;;;;;;;;;;;;19.34;62.43;100938.72;5002576;28;1899;-60
2021/06/30 08:41:58;;;;;;;;;;;;;;;19.36;62.47;100940.25;4997021;28;850;-60
2021/06/30 08:44:23;;;;;;;;;;;;;;;19.46;62.01;100945.59;4995721;28;1001;-60
2021/06/30 08:46:48;;;;;;;;;;;;;;;19.52;62.66;100938.75;4996880;28;876;-60
2021/06/30 08:49:13;;;;;;;;;;;;;;;19.51;62.69;100934.34;4996976;28;1977;-60
2021/06/30 08:51:39;;;;;;;;;;;;;;;19.49;62.50;100942.59;4996839;28;1849;-59
2021/06/30 08:54:04;;;;;;;;;;;;;;;19.51;62.12;100934.34;4996713;28;925;-60
2021/06/30 08:56:32;;;;;;;;;;;;;;;19.49;61.69;100939.88;5006848;28;1646;-60
2021/06/30 08:58:57;;;;;;;;;;;;;;;19.55;61.86;100941.13;5011577;28;1443;-59
2021/06/30 09:01:23;;;;;;;;;;;;;;;19.51;62.11;100946.03;5015670;28;1671;-59
2021/06/30 09:03:51;;;;;;;;;;;;;;;19.45;61.91;100956.56;5015388;28;1606;-59
2021/06/30 09:06:16;;;;;;;;;;;;;;;19.41;61.52;100956.84;5015387;28;1625;-59
2021/06/30 09:08:41;;;;;;;;;;;;;;;19.40;61.49;100951.59;5008485;28;1902;-60
2021/06/30 09:11:06;;;;;;;;;;;;;;;19.39;62.32;100948.03;5016444;28;1595;-59
2021/06/30 09:13:32;;;;;;;;;;;;;;;19.38;61.74;100951.75;5012575;28;1688;-59
2021/06/30 09:15:57;;;;;;;;;;;;;;;19.38;62.10;100953.59;5011269;28;1813;-60
2021/06/30 09:18:26;;;;;;;;;;;;;;;19.36;62.52;100942.94;5010431;28;1545;-59
2021/06/30 09:20:51;;;;;;;;;;;;;;;19.35;62.08;100952.06;5013219;28;1436;-59
2021/06/30 09:23:16;;;;;;;;;;;;;;;19.34;62.36;100954.94;5014052;28;1722;-59
2021/06/30 09:25:41;;;;;;;;;;;;;;;19.34;62.03;100954.94;5015258;28;1502;-59
2021/06/30 09:28:06;;;;;;;;;;;;;;;19.33;61.80;100959.50;5003922;28;1918;-59
2021/06/30 09:30:31;;;;;;;;;;;;;;;19.34;62.03;100952.25;5010931;28;1562;-59
2021/06/30 09:32:56;;;;;;;;;;;;;;;19.36;61.80;100944.78;5012857;28;1548;-59
2021/06/30 09:35:22;;;;;;;;;;;;;;;19.46;61.71;100959.09;5001579;28;1409;-57
2021/06/30 09:37:48;;;;;;;;;;;;;;;19.43;63.14;100964.81;5006488;28;1562;-59
2021/06/30 09:40:15;;;;;;;;;;;;;;;19.40;62.63;100963.25;4998434;28;1476;-59
2021/06/30 09:42:40;;;;;;;;;;;;;;;19.39;62.83;100966.13;5011875;28;1525;-59
2021/06/30 09:45:05;;;;;;;;;;;;;;;19.37;62.60;100963.56;5011416;28;1452;-58
2021/06/30 09:47:31;;;;;;;;;;;;;;;19.37;63.11;100966.25;5001746;28;1977;-58
2021/06/30 09:49:56;;;;;;;;;;;;;;;19.36;62.26;100963.72;5004827;28;1505;-58
2021/06/30 09:52:21;;;;;;;;;;;;;;;19.36;62.73;100958.31;5009660;28;1423;-59
2021/06/30 09:54:46;;;;;;;;;;;;;;;19.33;62.71;100955.94;5007019;28;1415;-58
2021/06/30 09:57:12;;;;;;;;;;;;;;;19.34;63.24;100965.75;5001028;28;1548;-59
2021/06/30 09:59:37;;;;;;;;;;;;;;;19.32;63.25;100963.19;5010852;28;1870;-59
2021/06/30 10:02:02;;;;;;;;;;;;;;;19.35;63.36;100964.72;5008243;28;1901;-58
2021/06/30 10:04:30;;;;;;;;;;;;;;;19.35;63.62;100978.22;5011157;28;1723;-59
2021/06/30 10:06:55;;;;;;;;;;;;;;;19.33;63.83;100977.56;5012265;28;1682;-58
2021/06/30 10:09:20;;;;;;;;;;;;;;;19.35;63.80;100983.63;5018222;28;1894;-58
2021/06/30 10:11:45;;;;;;;;;;;;;;;19.33;63.69;100981.13;5018108;28;992;-57
2021/06/30 10:14:10;;;;;;;;;;;;;;;19.31;63.24;100977.72;5019417;28;1075;-58
2021/06/30 10:16:36;;;;;;;;;;;;;;;19.31;63.40;100977.72;5009186;28;1808;-58
2021/06/30 10:19:02;;;;;;;;;;;;;;;19.30;62.98;100976.00;4999566;28;889;-58
2021/06/30 10:21:27;;;;;;;;;;;;;;;19.30;63.32;100969.75;4999623;28;781;-57
2021/06/30 10:23:52;;;;;;;;;;;;;;;19.29;63.35;100974.31;4999577;28;922;-58
2021/06/30 10:26:19;;;;;;;;;;;;;;;19.28;62.96;100971.75;5006096;28;1744;-58
2021/06/30 10:28:44;;;;;;;;;;;;;;;19.28;62.62;100966.34;5018918;28;1898;-58
2021/06/30 10:31:09;;;;;;;;;;;;;;;19.28;63.42;100974.47;5018972;28;1056;-58
2021/06/30 10:33:34;;;;;;;;;;;;;;;19.29;62.43;100978.84;5018866;28;940;-58
2021/06/30 10:35:59;;;;;;;;;;;;;;;19.28;63.14;100974.47;5014005;28;1768;-58
2021/06/30 10:38:24;;;;;;;;;;;;;;;19.27;62.65;100981.72;4999045;28;1822;-58
2021/06/30 10:40:49;;;;;;;;;;;;;;;19.26;62.92;100976.47;4999554;28;1292;-57
2021/06/30 10:43:14;;;;;;;;;;;;;;;19.27;62.81;100970.91;4999196;28;893;-58
2021/06/30 10:45:39;;;;;;;;;;;;;;;19.27;62.86;100975.47;5002968;28;1753;-56
2021/06/30 10:48:05;;;;;;;;;;;;;;;19.27;62.86;100970.06;5017995;28;1922;-55
2021/06/30 10:50:30;;;;;;;;;;;;;;;19.28;62.95;100977.16;5018205;28;920;-58
2021/06/30 10:52:55;;;;;;;;;;;;;;;19.28;62.85;100971.75;5018158;28;795;-57
2021/06/30 10:55:20;;;;;;;;;;;;;;;19.27;62.94;100980.88;5003980;28;1964;-59
2021/06/30 10:57:45;;;;;;;;;;;;;;;19.26;63.10;100973.75;4998418;28;1738;-58
2021/06/30 11:00:10;;;;;;;;;;;;;;;19.26;63.76;100980.00;4998346;28;921;-57
2021/06/30 11:02:36;;;;;;;;;;;;;;;19.28;63.99;100971.75;4998990;28;862;-57
2021/06/30 11:05:01;;;;;;;;;;;;;;;19.31;64.83;100972.31;5009982;28;1898;-57
2021/06/30 11:07:26;;;;;;;;;;;;;;;19.34;65.29;100973.84;5017182;28;1898;-57
2021/06/30 11:09:51;;;;;;;;;;;;;;;19.31;63.85;100980.41;5018052;28;997;-58
2021/06/30 11:12:16;;;;;;;;;;;;;;;19.29;63.89;100977.00;5015874;28;1785;-58
2021/06/30 11:14:41;;;;;;;;;;;;;;;19.31;65.14;100976.84;5009445;28;1687;-58
2021/06/30 11:17:06;;;;;;;;;;;;;;;19.33;64.96;100985.66;5018051;28;1649;-58
2021/06/30 11:19:31;;;;;;;;;;;;;;;19.37;65.03;100990.59;5018047;28;902;-58
2021/06/30 11:21:56;;;;;;;;;;;;;;;19.39;65.52;100991.28;5017537;28;811;-58
2021/06/30 11:24:21;;;;;;;;;;;;;;;19.39;66.42;100991.28;5017527;28;2037;-58
2021/06/30 11:26:47;;;;;;;;;;;;;;;19.38;66.17;100995.00;5017106;28;1753;-58
2021/06/30 11:29:13;;;;;;;;;;;;;;;19.39;65.61;100995.84;5017271;28;1952;-58
2021/06/30 11:31:38;;;;;;;;;;;;;;;19.35;64.80;100998.00;5017977;28;993;-58
2021/06/30 11:34:03;;;;;;;;;;;;;;;19.33;65.41;100997.31;5017672;28;878;-58
2021/06/30 11:36:28;;;;;;;;;;;;;;;19.31;64.09;100993.06;5015892;28;2354;-57
2021/06/30 11:38:53;;;;;;;;;;;;;;;19.31;64.63;101001.19;5017254;28;1839;-57
2021/06/30 11:41:24;;;;;;;;;;;;;;;19.36;64.88;101006.97;5011182;28;1831;-58
2021/06/30 11:43:49;;;;;;;;;;;;;;;19.39;65.26;101006.66;5009846;28;1997;-58
2021/06/30 11:46:14;;;;;;;;;;;;;;;19.41;64.93;101004.66;5008291;28;1941;-57
2021/06/30 11:48:40;;;;;;;;;;;;;;;19.41;64.36;101004.66;5008569;28;1891;-58
2021/06/30 11:51:06;;;;;;;;;;;;;;;19.39;64.46;101007.50;5017212;28;1851;-57
2021/06/30 11:53:31;;;;;;;;;;;;;;;19.38;64.09;101005.81;5017141;28;1806;-58
2021/06/30 11:55:56;;;;;;;;;;;;;;;19.36;63.54;101013.22;5016972;28;1871;-57
2021/06/30 11:58:21;;;;;;;;;;;;;;;19.33;63.37;101008.13;5016972;28;1899;-57
2021/06/30 12:00:46;;;;;;;;;;;;;;;19.34;63.84;101015.25;5016875;28;1978;-58
2021/06/30 12:03:11;;;;;;;;;;;;;;;19.34;64.10;101009.84;5014444;28;1930;-57
2021/06/30 12:05:38;;;;;;;;;;;;;;;19.40;65.19;101008.34;5012262;28;2442;-55
2021/06/30 12:08:03;;;;;;;;;;;;;;;19.42;65.66;101003.66;5008192;28;1894;-58
2021/06/30 12:10:31;;;;;;;;;;;;;;;19.48;65.50;101000.34;5014957;28;1834;-58
2021/06/30 12:12:56;;;;;;;;;;;;;;;19.51;66.34;101004.63;5010040;28;1698;-58
2021/06/30 12:15:22;;;;;;;;;;;;;;;19.54;65.63;100998.91;5005261;28;1699;-59
2021/06/30 12:17:47;;;;;;;;;;;;;;;19.55;66.83;101001.44;5016585;28;1856;-59
2021/06/30 12:20:12;;;;;;;;;;;;;;;19.55;65.75;101004.16;5016097;28;1970;-59
2021/06/30 12:22:37;;;;;;;;;;;;;;;19.58;65.38;101006.56;5005325;28;2100;-57
2021/06/30 12:25:03;;;;;;;;;;;;;;;19.58;67.03;101008.41;5014677;28;2076;-56
2021/06/30 12:27:28;;;;;;;;;;;;;;;19.60;66.66;101009.97;5016353;28;2109;-57
2021/06/30 12:29:54;;;;;;;;;;;;;;;19.48;66.83;101016.56;5016529;28;2420;-56
2021/06/30 12:32:19;;;;;;;;;;;;;;;19.46;66.17;101015.00;5014476;28;1663;-57
2021/06/30 12:34:44;;;;;;;;;;;;;;;19.45;65.87;101011.47;5016052;28;1946;-57
2021/06/30 12:37:09;;;;;;;;;;;;;;;19.43;64.70;101008.91;5016053;28;1618;-57
2021/06/30 12:39:35;;;;;;;;;;;;;;;19.42;64.79;101011.75;5014826;28;2369;-58